Time;durP1;ratioP1;P1;durP2;ratioP2;P2;SDS_P1;SDS_P2;PMS_P1;PMS_P2;Temp;Humidity;BMP_temperature;BMP_pressure;BME280_temperature;BME280_humidity;BME280_pressure;Samples;Min_cycle;Max_cycle;Signal;HPM_P1;HPM_P2
2021/08/19 00:05:06;;;;;;;;;2.50;2.00;;;;;20.11;61.97;101027.56;5070320;28;45548;-85
2021/08/19 00:07:31;;;;;;;;;2.00;1.25;;;;;19.93;61.82;101014.34;5067774;28;46548;-85
2021/08/19 00:09:57;;;;;;;;;3.25;2.75;;;;;19.95;62.13;101009.72;5083353;28;47351;-87
2021/08/19 00:12:23;;;;;;;;;3.00;3.00;;;;;19.98;62.47;101027.16;5071498;28;45804;-86
2021/08/19 00:14:49;;;;;;;;;3.00;2.00;;;;;19.75;62.11;100981.69;5065490;28;45421;-88
2021/08/19 00:17:15;;;;;;;;;2.00;2.00;;;;;19.83;62.12;100994.19;5083219;28;45549;-88
2021/08/19 00:19:40;;;;;;;;;2.50;1.75;;;;;19.90;62.06;101013.84;5082818;28;45442;-87
2021/08/19 00:22:06;;;;;;;;;3.00;3.00;;;;;19.83;62.08;101000.34;5066199;28;45013;-88
2021/08/19 00:24:31;;;;;;;;;3.00;2.75;;;;;19.82;62.06;101003.16;5084350;28;45133;-86
2021/08/19 00:26:57;;;;;;;;;2.75;2.00;;;;;19.98;61.87;101020.00;5066011;28;47633;-85
2021/08/19 00:29:22;;;;;;;;;3.00;3.00;;;;;19.77;61.90;100982.34;5066027;28;47279;-89
2021/08/19 00:35:09;;;;;;;;;3.00;3.00;;;;;19.98;61.78;101012.03;5057970;28;45554;-89
2021/08/19 00:37:35;;;;;;;;;3.50;3.25;;;;;19.79;62.15;100977.72;5058281;28;45874;-88
2021/08/19 00:40:02;;;;;;;;;3.25;2.25;;;;;19.88;62.45;100991.88;5059146;28;45598;-85
2021/08/19 00:42:27;;;;;;;;;3.25;2.75;;;;;19.84;62.05;100986.06;5055977;28;45739;-86
2021/08/19 00:44:52;;;;;;;;;2.50;2.50;;;;;19.84;62.59;100986.06;5073046;28;46025;-87
2021/08/19 00:50:43;;;;;;;;;3.00;3.00;;;;;19.74;62.43;100977.38;5058308;28;45610;-84
2021/08/19 00:53:09;;;;;;;;;2.75;2.75;;;;;19.78;62.30;100977.88;5060487;28;45684;-84
2021/08/19 00:55:34;;;;;;;;;1.75;1.75;;;;;19.67;62.06;100971.84;5044962;28;45932;-84
2021/08/19 00:58:00;;;;;;;;;3.50;2.50;;;;;19.60;62.22;100960.16;5044743;28;47732;-86
2021/08/19 01:00:26;;;;;;;;;3.00;2.25;;;;;19.84;61.98;100999.34;5067690;28;45571;-85
2021/08/19 01:02:54;;;;;;;;;3.00;2.25;;;;;19.67;62.04;100969.19;5071626;28;45645;-83
2021/08/19 01:05:23;;;;;;;;;2.25;2.25;;;;;19.64;62.32;100974.84;5088406;28;45325;-86
2021/08/19 01:07:50;;;;;;;;;2.00;2.00;;;;;19.71;62.42;100988.31;5057904;28;48091;-90
2021/08/19 01:10:16;;;;;;;;;2.00;2.00;;;;;19.52;62.20;100954.81;5066722;28;48522;-86
2021/08/19 01:12:43;;;;;;;;;3.00;3.00;;;;;19.59;62.36;100977.13;5101273;27;45114;-87
2021/08/19 01:15:10;;;;;;;;;4.00;3.25;;;;;19.67;62.45;100987.78;5083074;28;45070;-88
2021/08/19 01:17:36;;;;;;;;;2.75;2.75;;;;;19.72;62.31;100989.13;5064293;28;46715;-88
2021/08/19 01:20:02;;;;;;;;;3.00;3.00;;;;;19.69;62.51;100991.16;5070889;28;45586;-91
2021/08/19 01:22:28;;;;;;;;;3.00;3.00;;;;;19.60;62.17;100978.78;5039925;28;45722;-88
2021/08/19 01:24:53;;;;;;;;;2.50;2.50;;;;;19.67;62.53;100987.78;5073599;28;45698;-90
2021/08/19 01:27:20;;;;;;;;;2.00;2.00;;;;;19.47;62.35;100959.78;5059586;28;45625;-89
2021/08/19 01:29:48;;;;;;;;;2.00;2.00;;;;;19.46;62.52;100954.63;5059275;28;45991;-89
2021/08/19 01:35:35;;;;;;;;;2.00;2.00;;;;;19.52;62.38;100976.09;5064793;28;45557;-87
2021/08/19 01:38:00;;;;;;;;;2.00;1.75;;;;;19.62;62.16;100987.44;5049471;28;47188;-89
2021/08/19 01:40:26;;;;;;;;;1.50;1.50;;;;;19.44;62.68;100956.56;5044359;28;47011;-89
2021/08/19 01:42:51;;;;;;;;;2.25;2.25;;;;;19.29;62.59;100927.09;5059139;28;45494;-89
2021/08/19 01:45:18;;;;;;;;;2.50;2.50;;;;;19.31;62.11;100932.25;5074498;28;46011;-90
2021/08/19 01:51:13;;;;;;;;;2.25;1.75;;;;;19.36;62.48;100937.94;5056650;28;46048;-92
2021/08/19 01:53:41;;;;;;;;;2.75;2.75;;;;;19.27;62.13;100927.25;5061160;28;45703;-87
2021/08/19 01:56:06;;;;;;;;;2.75;2.75;;;;;19.35;61.98;100949.53;5069289;28;45358;-87
2021/08/19 01:58:32;;;;;;;;;3.25;3.00;;;;;19.48;62.18;100974.75;5064455;28;45669;-88
2021/08/19 02:00:57;;;;;;;;;4.00;3.00;;;;;19.32;62.38;100941.91;5076031;28;46842;-88
2021/08/19 02:03:22;;;;;;;;;1.50;1.50;;;;;19.09;62.45;100918.50;5079261;28;45575;-87
2021/08/19 02:05:48;;;;;;;;;2.00;2.00;;;;;19.17;62.25;100921.19;5078506;28;45577;-84
2021/08/19 02:08:15;;;;;;;;;2.25;2.25;;;;;19.32;62.34;100941.91;5063548;28;45833;-88
2021/08/19 02:10:42;;;;;;;;;2.75;2.25;;;;;19.47;62.58;100964.25;5060753;28;45771;-87
2021/08/19 02:13:08;;;;;;;;;1.00;1.00;;;;;19.24;62.37;100938.19;5044769;28;45659;-89
2021/08/19 02:15:33;;;;;;;;;2.75;2.75;;;;;19.42;62.07;100971.84;5041491;28;45823;-86
2021/08/19 02:17:59;;;;;;;;;3.50;3.50;;;;;19.29;62.08;100951.00;5056667;28;45616;-87
2021/08/19 02:20:25;;;;;;;;;2.25;1.75;;;;;19.18;62.18;100938.81;5064798;28;46572;-86
2021/08/19 02:22:50;;;;;;;;;2.50;2.00;;;;;19.23;62.26;100954.28;5066463;28;45633;-87
2021/08/19 02:25:17;;;;;;;;;2.50;2.50;;;;;19.22;62.28;100955.25;5073978;28;45792;-84
2021/08/19 02:27:43;;;;;;;;;2.75;2.75;;;;;19.32;62.44;100976.44;5055256;28;46834;-88
2021/08/19 02:30:10;;;;;;;;;2.25;2.25;;;;;19.08;62.22;100937.25;5055116;28;45493;-85
2021/08/19 02:35:57;;;;;;;;;2.75;2.00;;;;;19.23;61.99;100955.13;5059928;28;45709;-86
2021/08/19 02:38:23;;;;;;;;;2.00;2.00;;;;;19.25;62.25;100958.47;5074334;28;46420;-86
2021/08/19 02:40:48;;;;;;;;;3.00;2.00;;;;;18.95;62.52;100910.28;5058710;28;45895;-85
2021/08/19 02:43:13;;;;;;;;;2.75;2.00;;;;;19.17;62.25;100941.63;5058543;28;45609;-87
2021/08/19 02:45:39;;;;;;;;;1.75;1.75;;;;;19.13;62.26;100932.31;5058819;28;45637;-87
2021/08/19 02:51:26;;;;;;;;;1.50;1.50;;;;;18.99;62.08;100895.69;5057585;28;46054;-86
2021/08/19 02:53:51;;;;;;;;;3.50;2.50;;;;;19.27;62.22;100943.19;5039791;28;46209;-86
2021/08/19 02:56:17;;;;;;;;;1.50;1.50;;;;;19.18;62.27;100924.69;5040257;28;45578;-89
2021/08/19 02:58:42;;;;;;;;;1.25;1.25;;;;;18.98;62.26;100889.56;5061515;28;45714;-89
2021/08/19 03:01:08;;;;;;;;;3.75;3.00;;;;;19.11;62.10;100908.53;5044425;28;48480;-87
2021/08/19 03:03:33;;;;;;;;;1.50;1.50;;;;;19.23;61.85;100933.84;5060611;28;45570;-86
2021/08/19 03:05:59;;;;;;;;;2.00;2.00;;;;;19.22;62.10;100924.22;5076896;28;45513;-86
2021/08/19 03:08:24;;;;;;;;;2.50;1.75;;;;;19.33;61.84;100940.88;5058279;28;46695;-85
2021/08/19 03:10:49;;;;;;;;;1.75;1.75;;;;;19.16;61.90;100910.75;5057506;28;45614;-86
2021/08/19 03:13:15;;;;;;;;;2.00;2.00;;;;;19.13;61.85;100911.06;5039369;28;45714;-87
2021/08/19 03:15:40;;;;;;;;;3.25;2.75;;;;;19.11;61.94;100910.41;5058218;28;45642;-88
2021/08/19 03:21:40;;;;;;;;;3.50;3.50;;;;;19.19;61.96;100929.03;5059516;27;46131;-90
2021/08/19 03:24:06;;;;;;;;;3.75;3.00;;;;;19.04;62.04;100904.88;5077585;28;45899;-90
2021/08/19 03:26:32;;;;;;;;;2.25;2.25;;;;;19.13;62.18;100929.66;5063435;28;45451;-90
2021/08/19 03:28:58;;;;;;;;;3.75;3.75;;;;;19.08;61.90;100932.78;5049522;28;46329;-93
2021/08/19 03:31:25;;;;;;;;;2.75;2.75;;;;;19.01;62.07;100909.63;5067846;28;46021;-92
2021/08/19 03:33:50;;;;;;;;;3.00;3.00;;;;;19.08;62.12;100919.50;5041656;28;45697;-91
2021/08/19 03:36:16;;;;;;;;;2.00;2.00;;;;;19.07;62.34;100914.31;5060074;28;45592;-90
2021/08/19 03:38:43;;;;;;;;;3.50;3.00;;;;;19.02;61.84;100898.03;5078998;28;48062;-90
2021/08/19 03:41:08;;;;;;;;;1.75;1.75;;;;;19.02;62.00;100895.38;5082468;28;47404;-89
2021/08/19 03:43:34;;;;;;;;;2.25;2.00;;;;;19.08;62.17;100895.59;5064385;28;46002;-88
2021/08/19 03:45:59;;;;;;;;;3.00;3.00;;;;;19.16;62.00;100913.41;5041220;28;45476;-88
2021/08/19 03:51:46;;;;;;;;;2.25;2.25;;;;;19.13;62.15;100897.78;5064115;28;46021;-88
2021/08/19 03:54:12;;;;;;;;;1.00;1.00;;;;;19.12;62.21;100888.97;5072132;28;46055;-91
2021/08/19 03:56:39;;;;;;;;;3.00;3.00;;;;;19.21;62.23;100922.56;5075372;28;45515;-88
2021/08/19 03:59:08;;;;;;;;;3.75;3.00;;;;;19.19;62.42;100915.75;5069253;28;45817;-89
2021/08/19 04:01:34;;;;;;;;;3.00;2.50;;;;;18.99;61.93;100890.38;5063162;28;45925;-89
2021/08/19 04:04:00;;;;;;;;;3.50;3.50;;;;;19.02;62.17;100898.03;5062757;28;45759;-88
2021/08/19 04:06:25;;;;;;;;;2.00;2.00;;;;;19.11;61.98;100921.81;5078253;28;45585;-88
2021/08/19 04:08:51;;;;;;;;;3.00;3.00;;;;;19.18;61.97;100927.34;5074918;28;47822;-88
2021/08/19 04:11:16;;;;;;;;;3.25;3.00;;;;;18.92;62.01;100882.22;5039877;28;47221;-87
2021/08/19 04:13:42;;;;;;;;;3.00;3.00;;;;;19.05;61.88;100922.47;5058194;28;45976;-88
2021/08/19 04:16:08;;;;;;;;;4.00;4.00;;;;;18.90;62.31;100875.38;5074549;28;45595;-88
2021/08/19 04:21:55;;;;;;;;;4.00;4.00;;;;;18.86;62.28;100881.00;5057328;28;45788;-87
2021/08/19 04:24:20;;;;;;;;;3.00;3.00;;;;;18.98;62.07;100908.16;5039485;28;45777;-87
2021/08/19 04:26:46;;;;;;;;;3.00;3.00;;;;;19.04;62.25;100915.50;5073005;28;45576;-89
2021/08/19 04:29:11;;;;;;;;;3.00;3.00;;;;;18.99;62.45;100901.84;5073393;28;46522;-89
2021/08/19 04:31:37;;;;;;;;;3.75;3.75;;;;;18.90;62.02;100883.34;5058349;28;45701;-91
2021/08/19 04:34:03;;;;;;;;;5.00;4.00;;;;;18.93;62.46;100902.47;5039783;28;45678;-89
2021/08/19 04:36:31;;;;;;;;;3.50;2.50;;;;;18.66;62.23;100852.16;5074275;28;45911;-91
2021/08/19 04:38:57;;;;;;;;;3.00;3.00;;;;;19.08;62.29;100922.16;5059638;28;45503;-92
2021/08/19 04:41:22;;;;;;;;;3.00;3.00;;;;;19.01;62.30;100913.13;5075620;28;47160;-90
2021/08/19 04:43:48;;;;;;;;;4.25;3.50;;;;;18.92;61.92;100892.81;5075076;28;45565;-91
2021/08/19 04:46:13;;;;;;;;;3.25;2.75;;;;;18.80;62.24;100864.88;5044422;28;45715;-88
2021/08/19 04:52:00;;;;;;;;;3.50;3.00;;;;;18.95;62.37;100903.13;5059697;28;46063;-88
2021/08/19 04:54:26;;;;;;;;;4.00;3.25;;;;;19.05;62.42;100921.63;5042629;28;45523;-88
2021/08/19 04:56:51;;;;;;;;;3.50;2.75;;;;;19.12;62.18;100930.63;5042558;28;45679;-90
2021/08/19 04:59:17;;;;;;;;;3.00;3.00;;;;;19.03;62.05;100923.59;5066419;28;45684;-89
2021/08/19 05:08:08;;;;;;;;;3.50;2.50;;;;;19.19;62.42;100944.97;5067975;28;45659;-91
2021/08/19 05:10:33;;;;;;;;;2.75;2.50;;;;;18.95;62.10;100903.13;5047155;28;47686;-88
2021/08/19 05:12:59;;;;;;;;;3.25;3.00;;;;;19.22;62.34;100941.97;5065034;28;45602;-91
2021/08/19 05:15:24;;;;;;;;;4.25;4.25;;;;;19.00;62.62;100898.19;5043457;28;45788;-89
2021/08/19 05:17:50;;;;;;;;;3.00;3.00;;;;;19.01;62.35;100891.03;5062976;28;45637;-87
2021/08/19 05:20:16;;;;;;;;;5.50;4.00;;;;;19.11;62.41;100913.06;5064136;28;46546;-89
2021/08/19 05:22:41;;;;;;;;;3.75;3.00;;;;;19.15;62.42;100927.69;5047502;28;47222;-89
2021/08/19 05:25:07;;;;;;;;;3.25;3.25;;;;;19.28;62.41;100942.19;5066858;28;45275;-88
2021/08/19 05:27:32;;;;;;;;;4.50;3.50;;;;;19.20;62.42;100926.22;5063516;28;45744;-88
2021/08/19 05:29:58;;;;;;;;;4.25;4.25;;;;;19.08;62.42;100916.00;5062055;28;46974;-87
2021/08/19 05:32:23;;;;;;;;;3.50;3.50;;;;;18.93;62.52;100891.00;5060992;28;45524;-89
2021/08/19 05:34:48;;;;;;;;;4.50;4.25;;;;;19.05;62.60;100916.31;5064836;28;45867;-89
2021/08/19 05:37:14;;;;;;;;;4.75;4.00;;;;;18.86;62.35;100883.66;5064111;28;45488;-89
2021/08/19 05:39:39;;;;;;;;;4.75;3.75;;;;;19.15;62.31;100936.47;5079765;28;48473;-88
2021/08/19 05:42:05;;;;;;;;;6.25;4.75;;;;;19.26;62.42;100952.16;5065596;28;45595;-88
2021/08/19 05:44:30;;;;;;;;;3.00;2.00;;;;;18.95;62.22;100895.16;5068513;28;45349;-88
2021/08/19 05:46:56;;;;;;;;;5.25;4.50;;;;;19.28;62.29;100946.66;5082384;28;45649;-88
2021/08/19 05:52:44;;;;;;;;;5.25;3.75;;;;;19.25;62.09;100949.66;5065909;28;45348;-88
2021/08/19 05:55:10;;;;;;;;;6.50;5.75;;;;;19.28;61.94;100944.84;5059726;28;45847;-87
2021/08/19 05:57:35;;;;;;;;;3.75;3.75;;;;;19.28;62.59;100950.16;5057753;28;45582;-87
2021/08/19 06:00:02;;;;;;;;;3.25;3.25;;;;;19.19;62.29;100929.84;5040310;28;46425;-88
2021/08/19 06:02:27;;;;;;;;;6.25;5.00;;;;;19.14;62.47;100934.81;5056417;28;46197;-89
2021/08/19 06:04:53;;;;;;;;;3.75;3.75;;;;;19.06;62.31;100913.50;5058058;28;45512;-89
2021/08/19 06:07:18;;;;;;;;;4.75;4.75;;;;;19.16;62.26;100921.38;5059940;28;45884;-86
2021/08/19 06:09:44;;;;;;;;;5.25;5.25;;;;;19.25;62.56;100945.19;5064638;28;45463;-88
2021/08/19 06:12:09;;;;;;;;;4.50;4.00;;;;;19.23;62.18;100949.81;5050917;28;46260;-83
2021/08/19 06:14:34;;;;;;;;;4.75;4.00;;;;;19.04;62.23;100912.84;5052069;28;45597;-90
2021/08/19 06:17:00;;;;;;;;;5.50;4.25;;;;;19.23;62.47;100949.81;5067912;28;45733;-85
2021/08/19 06:22:47;;;;;;;;;6.50;4.50;;;;;19.07;62.53;100927.59;5069070;27;45495;-85
2021/08/19 06:25:13;;;;;;;;;6.25;5.50;;;;;18.90;62.56;100918.69;5074604;28;45511;-85
2021/08/19 06:27:39;;;;;;;;;4.50;3.25;;;;;19.06;62.41;100929.44;5080930;28;45195;-87
2021/08/19 06:30:06;;;;;;;;;5.00;4.75;;;;;19.17;62.22;100949.59;5078449;28;45589;-87
2021/08/19 06:32:31;;;;;;;;;6.25;6.00;;;;;19.15;62.65;100952.41;5056412;28;46615;-84
2021/08/19 06:34:56;;;;;;;;;6.25;5.25;;;;;18.92;62.67;100914.06;5071488;28;45520;-86
2021/08/19 06:37:22;;;;;;;;;6.00;6.00;;;;;19.11;62.31;100948.38;5054723;28;45499;-86
2021/08/19 06:39:47;;;;;;;;;4.50;4.50;;;;;18.93;62.74;100918.41;5072112;28;45519;-86
2021/08/19 06:42:13;;;;;;;;;5.00;5.00;;;;;19.05;62.59;100929.59;5048872;28;47324;-86
2021/08/19 06:44:38;;;;;;;;;5.00;5.00;;;;;18.97;62.12;100921.56;5043522;28;45639;-86
2021/08/19 06:47:04;;;;;;;;;4.75;4.50;;;;;19.12;62.83;100952.72;5061901;28;45744;-86
2021/08/19 06:52:51;;;;;;;;;7.00;6.00;;;;;19.05;62.56;100943.72;5063998;28;45909;-87
2021/08/19 06:55:17;;;;;;;;;5.00;5.00;;;;;18.82;62.41;100906.22;5045217;28;45532;-87
2021/08/19 06:57:42;;;;;;;;;5.50;4.50;;;;;19.09;62.42;100955.69;5044041;28;45551;-88
2021/08/19 07:00:08;;;;;;;;;7.50;6.00;;;;;19.10;62.63;100951.22;5078299;28;48755;-90
2021/08/19 07:02:34;;;;;;;;;4.00;3.00;;;;;19.00;62.99;100932.69;5043490;28;48664;-89
2021/08/19 07:05:00;;;;;;;;;5.00;5.00;;;;;18.86;62.71;100920.00;5077031;28;45731;-89
2021/08/19 07:07:28;;;;;;;;;10.00;9.00;;;;;18.95;62.66;100921.72;5063810;28;45598;-87
2021/08/19 07:09:57;;;;;;;;;6.00;5.75;;;;;19.07;62.44;100943.53;5065441;28;45670;-89
2021/08/19 07:12:23;;;;;;;;;5.50;5.50;;;;;18.91;62.69;100915.06;5079271;28;46997;-88
2021/08/19 07:14:49;;;;;;;;;6.25;6.00;;;;;18.96;62.73;100925.22;5049027;28;45880;-89
2021/08/19 07:17:14;;;;;;;;;6.75;6.00;;;;;19.10;62.83;100948.56;5071239;28;45604;-85
2021/08/19 07:23:02;;;;;;;;;6.25;6.00;;;;;19.11;62.61;100944.91;5063792;28;46576;-86
2021/08/19 07:25:27;;;;;;;;;5.00;5.00;;;;;19.15;62.69;100948.94;5082173;28;45760;-88
2021/08/19 07:27:52;;;;;;;;;7.75;5.75;;;;;18.98;62.70;100910.81;5043701;28;45571;-84
2021/08/19 07:30:18;;;;;;;;;5.75;5.75;;;;;19.08;62.63;100916.84;5045300;28;47403;-85
2021/08/19 07:32:45;;;;;;;;;6.00;5.50;;;;;19.18;62.40;100919.38;5045494;28;46449;-85
2021/08/19 07:35:11;;;;;;;;;5.00;5.00;;;;;18.92;62.43;100876.06;5044468;28;45650;-85
2021/08/19 07:37:50;;;;;;;;;7.00;6.50;;;;;19.35;62.00;100941.56;5058834;28;45705;-86
2021/08/19 07:40:17;;;;;;;;;7.00;6.00;;;;;19.00;62.30;100871.63;5041253;28;47880;-85
2021/08/19 07:42:44;;;;;;;;;6.75;6.75;;;;;19.23;62.37;100903.81;5041852;28;47247;-88
2021/08/19 07:45:10;;;;;;;;;5.50;5.00;;;;;19.29;62.47;100922.59;5041945;28;45717;-87
2021/08/19 07:47:36;;;;;;;;;5.25;5.00;;;;;19.04;62.52;100869.50;5042110;28;45562;-87
2021/08/19 07:53:24;;;;;;;;;7.75;6.25;;;;;19.53;62.50;100937.06;5064448;28;45810;-87
2021/08/19 07:55:49;;;;;;;;;5.75;5.25;;;;;19.55;62.00;100929.75;5046387;28;45700;-86
2021/08/19 07:58:15;;;;;;;;;6.25;6.00;;;;;19.44;62.28;100912.22;5052707;28;45694;-90
2021/08/19 08:00:41;;;;;;;;;6.50;6.50;;;;;19.41;62.29;100903.75;5069885;28;45523;-85
2021/08/19 08:03:06;;;;;;;;;6.00;6.00;;;;;19.47;61.89;100914.59;5052334;28;45957;-86
2021/08/19 08:05:34;;;;;;;;;7.00;6.75;;;;;19.33;61.82;100885.06;5072167;28;45251;-85
2021/08/19 08:08:12;;;;;;;;;5.00;5.00;;;;;19.51;61.87;100902.66;5066546;28;45527;-86
2021/08/19 08:10:40;;;;;;;;;6.50;5.00;;;;;19.61;61.88;100914.00;5068420;28;45580;-86
2021/08/19 08:13:07;;;;;;;;;8.00;6.75;;;;;19.68;61.88;100927.50;5047401;28;47440;-88
2021/08/19 08:15:34;;;;;;;;;7.00;6.00;;;;;19.84;61.74;100948.00;5062990;28;45666;-87
2021/08/19 08:17:59;;;;;;;;;6.00;5.00;;;;;19.70;61.55;100925.50;5044531;28;45717;-87
2021/08/19 08:20:25;;;;;;;;;7.75;7.50;;;;;19.53;61.70;100905.16;5074634;28;47501;-89
2021/08/19 08:22:51;;;;;;;;;6.50;6.50;;;;;19.72;61.49;100930.66;5039405;28;46093;-87
2021/08/19 08:25:18;;;;;;;;;9.25;7.25;;;;;19.55;61.33;100905.81;5039035;28;45554;-86
2021/08/19 08:28:15;;;;;;;;;7.00;6.75;;;;;19.63;61.46;100919.16;5039688;28;45878;-86
2021/08/19 08:30:45;;;;;;;;;6.00;6.00;;;;;19.81;60.94;100943.00;5071395;28;47664;-85
2021/08/19 08:33:11;;;;;;;;;9.75;6.00;;;;;19.87;61.11;100956.47;5056094;28;45947;-81
2021/08/19 08:35:37;;;;;;;;;8.25;5.75;;;;;19.78;60.73;100945.97;5056145;28;45466;-80
2021/08/19 08:38:06;;;;;;;;;5.25;5.00;;;;;19.71;60.98;100940.44;5056728;28;45483;-83
2021/08/19 08:40:37;;;;;;;;;6.25;6.25;;;;;19.86;60.79;100959.31;5075881;28;47674;-78
2021/08/19 08:43:05;;;;;;;;;5.50;5.00;;;;;19.65;61.16;100919.81;5058114;28;45656;-86
2021/08/19 08:45:34;;;;;;;;;5.50;5.50;;;;;19.75;61.00;100925.88;5057306;28;45602;-86
2021/08/19 08:54:08;;;;;;;;;6.00;5.50;;;;;19.86;60.85;100961.97;5057102;28;45653;-89
2021/08/19 08:56:34;;;;;;;;;6.00;5.25;;;;;19.88;60.79;100967.94;5057338;28;45654;-89
2021/08/19 08:59:00;;;;;;;;;5.75;5.75;;;;;19.89;60.80;100964.28;5056732;28;45709;-88
2021/08/19 09:01:25;;;;;;;;;6.00;6.00;;;;;19.88;60.93;100979.41;5057414;28;45608;-82
2021/08/19 09:03:51;;;;;;;;;7.25;6.50;;;;;19.66;60.77;100940.94;5038989;28;48127;-85
2021/08/19 09:06:34;;;;;;;;;5.25;4.75;;;;;19.83;60.54;100973.75;5057233;28;45586;-85
2021/08/19 09:09:12;;;;;;;;;5.75;5.00;;;;;19.81;60.47;100978.38;5056948;28;45575;-93
2021/08/19 09:11:43;;;;;;;;;5.75;5.00;;;;;19.80;60.48;100987.38;5042387;28;46664;-89
2021/08/19 09:14:23;;;;;;;;;5.25;4.75;;;;;19.78;60.05;100977.88;5024545;28;47443;-82
2021/08/19 09:16:50;;;;;;;;;5.75;5.75;;;;;19.77;60.39;100977.03;5063006;28;45671;-85
2021/08/19 09:19:17;;;;;;;;;5.00;5.00;;;;;19.68;60.14;100962.06;5064406;28;45694;-88
2021/08/19 09:21:50;;;;;;;;;4.00;4.00;;;;;19.76;60.56;100977.22;5060923;28;45739;-82
2021/08/19 09:24:18;;;;;;;;;6.50;5.75;;;;;19.50;60.04;100940.00;5061370;28;45933;-86
2021/08/19 09:26:45;;;;;;;;;6.25;5.00;;;;;19.76;60.14;100972.69;5062088;28;45494;-88
2021/08/19 09:29:30;;;;;;;;;3.00;3.00;;;;;19.74;59.60;100971.22;5064211;28;45566;-86
2021/08/19 09:32:09;;;;;;;;;4.00;3.50;;;;;19.69;59.70;100977.00;5063218;28;45727;-84
2021/08/19 09:34:36;;;;;;;;;4.50;4.50;;;;;19.73;59.74;100980.19;5045298;28;47453;-89
2021/08/19 09:37:06;;;;;;;;;5.50;5.00;;;;;19.43;59.82;100933.66;5063452;28;45667;-84
2021/08/19 09:39:35;;;;;;;;;6.25;5.25;;;;;19.67;60.04;100977.16;5059455;28;45502;-88
2021/08/19 09:42:00;;;;;;;;;4.50;3.75;;;;;19.42;59.68;100940.78;5056248;28;46386;-84
2021/08/19 09:44:40;;;;;;;;;3.00;3.00;;;;;19.40;59.89;100939.28;5055721;28;45662;-84
2021/08/19 09:47:26;;;;;;;;;3.25;3.00;;;;;19.62;59.94;100979.47;5056043;28;45746;-88
2021/08/19 09:49:51;;;;;;;;;5.75;4.25;;;;;19.60;60.08;100975.28;5056003;28;45916;-89
2021/08/19 09:52:17;;;;;;;;;3.75;3.75;;;;;19.60;60.32;100977.94;5056225;28;45643;-88
2021/08/19 09:54:43;;;;;;;;;4.00;3.75;;;;;19.57;60.51;100978.28;5056806;28;46188;-90
2021/08/19 09:57:09;;;;;;;;;3.75;3.75;;;;;19.46;60.19;100954.63;5056554;28;45622;-82
2021/08/19 09:59:37;;;;;;;;;5.25;3.50;;;;;19.62;60.15;100970.66;5038075;28;46023;-81
2021/08/19 10:02:05;;;;;;;;;4.75;4.25;;;;;19.63;60.23;100967.00;5036940;28;47484;-84
2021/08/19 10:04:30;;;;;;;;;3.50;3.00;;;;;19.63;59.85;100961.69;5035931;28;47351;-84
2021/08/19 10:06:57;;;;;;;;;4.00;3.75;;;;;19.67;60.26;100963.88;5069597;28;45724;-86
2021/08/19 10:09:23;;;;;;;;;3.00;3.00;;;;;19.67;59.89;100971.84;5036393;28;45832;-82
2021/08/19 10:11:50;;;;;;;;;4.00;4.00;;;;;19.48;59.83;100936.69;5054205;28;46611;-82
2021/08/19 10:14:18;;;;;;;;;4.25;3.75;;;;;19.57;60.15;100955.19;5035603;28;47191;-85
2021/08/19 10:16:46;;;;;;;;;4.75;3.50;;;;;19.62;60.16;100963.50;5054410;28;45441;-86
2021/08/19 10:19:19;;;;;;;;;3.25;2.50;;;;;19.64;60.00;100974.00;5036652;28;45601;-82
2021/08/19 10:21:51;;;;;;;;;3.00;2.00;;;;;19.51;59.90;100955.81;5055241;28;45532;-84
2021/08/19 10:24:23;;;;;;;;;3.00;2.75;;;;;19.57;60.11;100968.47;5071470;28;47326;-83
2021/08/19 10:27:25;;;;;;;;;2.50;1.50;;;;;19.39;59.82;100942.91;5038048;28;45845;-83
2021/08/19 10:29:53;;;;;;;;;2.75;2.75;;;;;19.58;59.82;100974.63;5055379;28;45503;-84
2021/08/19 10:32:39;;;;;;;;;5.50;4.50;;;;;19.49;60.07;100959.59;5056679;28;45652;-83
2021/08/19 10:35:14;;;;;;;;;2.00;1.50;;;;;19.56;59.98;100966.81;5056039;28;45727;-87
2021/08/19 10:37:46;;;;;;;;;1.00;1.00;;;;;19.58;60.13;100967.50;5070619;28;45614;-83
2021/08/19 10:40:21;;;;;;;;;3.75;3.75;;;;;19.59;59.95;100966.50;5057363;28;45681;-85
2021/08/19 10:42:48;;;;;;;;;3.75;3.50;;;;;19.53;60.15;100942.38;5074286;28;47421;-83
2021/08/19 10:45:28;;;;;;;;;3.50;2.00;;;;;19.64;59.76;100966.88;5056669;28;46592;-84
2021/08/19 10:48:00;;;;;;;;;3.50;3.00;;;;;19.59;59.67;100942.59;5069967;28;45534;-86
2021/08/19 10:50:45;;;;;;;;;3.50;1.75;;;;;19.62;59.80;100946.72;5070626;28;45919;-88
2021/08/19 10:53:27;;;;;;;;;1.75;1.75;;;;;19.64;59.89;100945.59;5034487;28;47858;-88
2021/08/19 10:55:55;;;;;;;;;3.50;2.75;;;;;19.84;59.86;100967.44;5041427;28;47362;-84
2021/08/19 10:58:35;;;;;;;;;2.50;2.50;;;;;19.76;59.87;100943.47;5059673;28;45625;-82
2021/08/19 11:01:01;;;;;;;;;3.25;3.00;;;;;19.93;59.72;100969.13;5058730;28;45680;-80
2021/08/19 11:03:58;;;;;;;;;3.75;3.75;;;;;19.96;59.31;100966.16;5057897;28;46911;-79
2021/08/19 11:06:44;;;;;;;;;4.50;3.75;;;;;19.97;59.40;100965.13;5014708;28;46283;-81
2021/08/19 11:09:13;;;;;;;;;3.00;2.00;;;;;19.96;59.14;100960.84;5014511;28;45600;-84
2021/08/19 11:11:39;;;;;;;;;2.00;2.00;;;;;19.93;59.13;100961.16;5014941;28;45638;-83
2021/08/19 11:14:14;;;;;;;;;2.75;2.75;;;;;19.90;59.15;100953.50;5014755;28;46374;-83
2021/08/19 11:16:42;;;;;;;;;2.25;2.25;;;;;19.98;59.20;100958.84;5015650;28;46027;-83
2021/08/19 11:22:30;;;;;;;;;4.00;3.25;;;;;19.85;59.04;100915.91;5015128;28;45729;-86
2021/08/19 11:24:55;;;;;;;;;4.00;3.00;;;;;20.01;59.12;100941.72;5014526;28;45727;-83
2021/08/19 11:27:22;;;;;;;;;6.00;5.75;;;;;20.10;59.18;100948.72;5014669;28;45745;-82
2021/08/19 11:29:47;;;;;;;;;2.75;2.50;;;;;20.14;58.75;100950.06;5000452;28;45679;-81
2021/08/19 11:32:16;;;;;;;;;4.25;4.00;;;;;20.15;58.60;100943.75;5021632;28;45806;-85
2021/08/19 11:38:29;;;;;;;;;4.25;4.25;;;;;20.26;58.37;100964.75;5021242;28;46098;-81
2021/08/19 11:40:56;;;;;;;;;5.25;4.00;;;;;20.25;58.49;100954.25;5016664;28;45568;-80
2021/08/19 11:43:22;;;;;;;;;4.00;3.00;;;;;20.27;58.58;100960.25;5046174;28;45811;-84
2021/08/19 11:46:08;;;;;;;;;5.25;4.75;;;;;20.29;58.36;100958.28;5061014;28;46119;-84
2021/08/19 11:48:35;;;;;;;;;4.50;3.50;;;;;20.26;58.36;100946.13;5029173;28;47517;-84
2021/08/19 11:54:25;;;;;;;;;4.00;3.00;;;;;20.34;57.95;100950.66;5065339;28;45485;-87
2021/08/19 11:56:51;;;;;;;;;3.25;3.00;;;;;20.38;58.33;100955.50;5044241;28;46934;-87
2021/08/19 11:59:18;;;;;;;;;4.00;4.00;;;;;20.46;57.84;100949.31;5040263;28;47299;-85
2021/08/19 12:01:54;;;;;;;;;3.75;3.00;;;;;20.50;57.62;100945.38;5039150;28;45725;-86
2021/08/19 12:11:06;;;;;;;;;2.00;2.00;;;;;20.71;57.52;100950.19;5063630;28;45863;-88
2021/08/19 12:13:35;;;;;;;;;2.50;2.50;;;;;20.75;57.69;100946.19;5050702;28;45676;-87
2021/08/19 12:16:01;;;;;;;;;2.50;2.50;;;;;20.63;57.16;100921.72;5052565;28;45553;-86
2021/08/19 12:18:28;;;;;;;;;2.25;2.25;;;;;20.67;56.96;100931.06;5059967;28;45628;-88
2021/08/19 12:21:17;;;;;;;;;2.00;2.00;;;;;20.65;57.05;100913.56;5039829;28;47105;-87
2021/08/19 12:23:44;;;;;;;;;3.00;2.00;;;;;20.78;56.98;100941.34;5039275;28;45690;-87
2021/08/19 12:26:13;;;;;;;;;2.00;2.00;;;;;20.61;56.83;100906.94;5040744;28;45809;-86
2021/08/19 12:28:39;;;;;;;;;2.00;1.00;;;;;20.88;56.64;100950.03;5056534;28;46696;-87
2021/08/19 12:31:09;;;;;;;;;2.00;2.00;;;;;20.89;56.46;100953.53;5037808;28;47696;-87
2021/08/19 12:33:40;;;;;;;;;3.75;2.50;;;;;20.58;56.34;100910.75;5071416;28;45668;-85
2021/08/19 12:36:14;;;;;;;;;2.25;2.25;;;;;20.76;56.54;100919.41;5071478;28;45910;-87
2021/08/19 12:38:41;;;;;;;;;2.50;2.50;;;;;20.91;56.07;100956.84;5055148;28;46624;-88
2021/08/19 12:41:12;;;;;;;;;3.50;3.00;;;;;20.81;56.44;100942.88;5037241;28;48358;-87
2021/08/19 12:43:39;;;;;;;;;2.00;2.00;;;;;20.88;56.36;100951.88;5058668;28;45846;-88
2021/08/19 12:46:09;;;;;;;;;3.00;2.50;;;;;20.62;55.99;100903.28;5095786;27;45632;-86
2021/08/19 12:48:35;;;;;;;;;4.75;3.25;;;;;20.91;56.32;100956.84;5059727;28;47657;-86
2021/08/19 12:51:23;;;;;;;;;3.50;3.00;;;;;20.77;56.28;100931.72;5093512;27;47273;-86